createdAt,value
2019-05-18T00:00:54.019Z,99238.78
2019-05-18T00:03:21.134Z,99232.33
2019-05-18T00:05:48.314Z,99235.38
2019-05-18T00:08:15.390Z,99236.33
2019-05-18T00:10:42.488Z,99235.43
2019-05-18T00:13:09.631Z,99226.25
2019-05-18T00:15:36.855Z,99226.04
2019-05-18T00:18:04.417Z,99234.10
2019-05-18T00:20:31.480Z,99226.48
2019-05-18T00:22:58.682Z,99219.36
2019-05-18T00:25:25.919Z,99223.15
2019-05-18T00:27:55.321Z,99232.99
2019-05-18T00:30:22.416Z,99226.61
2019-05-18T00:32:50.677Z,99227.31
2019-05-18T00:35:18.120Z,99223.83
2019-05-18T00:37:45.289Z,99228.36
2019-05-18T00:40:12.351Z,99224.83
2019-05-18T00:42:39.535Z,99224.78
2019-05-18T00:45:06.988Z,99219.13
2019-05-18T00:47:41.588Z,99217.89
2019-05-18T00:50:06.690Z,99216.02
2019-05-18T00:52:35.642Z,99214.00
2019-05-18T00:55:03.147Z,99212.91
2019-05-18T00:57:30.338Z,99216.56
2019-05-18T00:59:59.202Z,99219.16
2019-05-18T01:02:26.248Z,99213.98
2019-05-18T01:04:53.395Z,99222.30
2019-05-18T01:07:21.593Z,99224.27
2019-05-18T01:09:48.721Z,99219.16
2019-05-18T01:12:18.199Z,99221.85
2019-05-18T01:14:45.231Z,99224.13
2019-05-18T01:17:12.375Z,99219.91
2019-05-18T01:19:39.539Z,99225.28
2019-05-18T01:22:08.063Z,99216.39
2019-05-18T01:24:38.642Z,99230.19
2019-05-18T01:27:05.726Z,99226.64
2019-05-18T01:29:32.781Z,99227.70
2019-05-18T01:31:59.835Z,99228.06
2019-05-18T01:34:26.959Z,99222.50
2019-05-18T01:36:54.084Z,99224.89
2019-05-18T01:39:21.148Z,99220.20
2019-05-18T01:41:48.242Z,99220.34
2019-05-18T01:44:15.325Z,99227.83
2019-05-18T01:46:42.371Z,99222.99
2019-05-18T01:49:09.559Z,99221.41
2019-05-18T01:51:36.713Z,99219.33
2019-05-18T01:54:04.912Z,99225.61
2019-05-18T01:56:31.993Z,99226.22
2019-05-18T01:58:59.058Z,99223.63
2019-05-18T02:01:28.226Z,99221.67
2019-05-18T02:03:55.503Z,99223.87
2019-05-18T02:06:24.382Z,99223.93
2019-05-18T02:08:51.422Z,99223.87
2019-05-18T02:11:19.165Z,99217.48
2019-05-18T02:13:46.224Z,99213.16
2019-05-18T02:16:14.560Z,99215.83
2019-05-18T02:18:41.647Z,99212.91
2019-05-18T02:21:08.875Z,99207.13
2019-05-18T02:23:35.920Z,99210.98
2019-05-18T02:26:04.066Z,99199.27
2019-05-18T02:28:31.102Z,99205.87
2019-05-18T02:30:58.582Z,99209.41
2019-05-18T02:33:25.656Z,99201.45
2019-05-18T02:35:52.702Z,99200.98
2019-05-18T02:38:19.724Z,99196.48
2019-05-18T02:40:47.247Z,99197.98
2019-05-18T02:43:15.316Z,99192.27
2019-05-18T02:45:42.486Z,99193.26
2019-05-18T02:48:09.660Z,99190.19
2019-05-18T02:50:37.908Z,99184.92
2019-05-18T02:53:05.082Z,99186.84
2019-05-18T02:55:32.133Z,99185.56
2019-05-18T02:57:59.408Z,99184.42
2019-05-18T03:00:26.859Z,99179.98
2019-05-18T03:02:53.985Z,99175.39
2019-05-18T03:05:21.057Z,99179.05
2019-05-18T03:07:49.879Z,99179.95
2019-05-18T03:10:17.098Z,99172.33
2019-05-18T03:12:44.154Z,99175.52
2019-05-18T03:15:11.640Z,99171.81
2019-05-18T03:17:38.722Z,99168.76
2019-05-18T03:20:07.775Z,99170.33
2019-05-18T03:22:34.837Z,99169.27
2019-05-18T03:25:01.895Z,99179.17
2019-05-18T03:27:28.940Z,99187.65
2019-05-18T03:29:55.999Z,99184.59
2019-05-18T03:32:23.360Z,99189.17
2019-05-18T03:34:51.854Z,99189.29
2019-05-18T03:37:18.913Z,99186.81
2019-05-18T03:39:45.962Z,99196.94
2019-05-18T03:42:14.101Z,99197.64
2019-05-18T03:44:42.338Z,99196.91
2019-05-18T03:47:09.419Z,99198.35
2019-05-18T03:49:38.240Z,99197.42
2019-05-18T03:52:05.310Z,99195.72
2019-05-18T03:54:32.579Z,99195.22
2019-05-18T03:56:59.620Z,99193.27
2019-05-18T03:59:26.635Z,99194.42
2019-05-18T04:01:53.854Z,99191.88
2019-05-18T04:04:20.894Z,99190.63
2019-05-18T04:06:49.785Z,99191.06
2019-05-18T04:09:18.120Z,99193.83
2019-05-18T04:11:45.138Z,99196.22
2019-05-18T04:14:12.369Z,99193.87
2019-05-18T04:16:39.958Z,99191.39
2019-05-18T04:19:07.088Z,99193.00
2019-05-18T04:21:39.772Z,99195.01
2019-05-18T04:24:06.993Z,99193.84
2019-05-18T04:26:34.633Z,99197.98
2019-05-18T04:29:01.683Z,99204.02
2019-05-18T04:31:32.081Z,99204.09
2019-05-18T04:33:57.694Z,99206.00
2019-05-18T04:36:25.978Z,99207.92
2019-05-18T04:38:54.785Z,99211.33
2019-05-18T04:41:25.295Z,99210.59
2019-05-18T04:43:56.089Z,99210.76
2019-05-18T04:46:23.141Z,99212.39
2019-05-18T04:48:50.533Z,99210.76
2019-05-18T04:51:19.776Z,99214.03
2019-05-18T04:53:47.047Z,99215.20
2019-05-18T04:56:17.685Z,99215.99
2019-05-18T04:58:50.232Z,99221.17
2019-05-18T05:01:19.159Z,99227.66
2019-05-18T05:03:47.325Z,99228.88
2019-05-18T05:06:14.416Z,99227.59
2019-05-18T05:08:44.701Z,99233.89
2019-05-18T05:11:11.906Z,99231.87
2019-05-18T05:13:40.331Z,99230.61
2019-05-18T05:16:07.353Z,99232.53
2019-05-18T05:18:34.578Z,99231.79
2019-05-18T05:21:02.085Z,99236.81
2019-05-18T05:23:29.161Z,99233.93
2019-05-18T05:25:56.280Z,99237.93
2019-05-18T05:28:23.380Z,99236.06
2019-05-18T05:30:50.442Z,99232.98
2019-05-18T05:33:24.353Z,99239.75
2019-05-18T05:35:52.553Z,99237.36
2019-05-18T05:38:19.629Z,99239.55
2019-05-18T05:40:48.515Z,99239.23
2019-05-18T05:43:15.673Z,99241.83
2019-05-18T05:45:42.757Z,99234.84
2019-05-18T05:48:10.029Z,99236.73
2019-05-18T05:50:37.207Z,99239.42
2019-05-18T05:53:04.779Z,99245.95
2019-05-18T05:55:32.031Z,99249.27
2019-05-18T05:58:00.896Z,99248.44
2019-05-18T06:00:29.194Z,99251.08
2019-05-18T06:02:56.923Z,99249.61
2019-05-18T06:05:25.203Z,99244.47
2019-05-18T06:07:54.120Z,99243.17
2019-05-18T06:10:21.244Z,99249.48
2019-05-18T06:12:48.274Z,99249.77
2019-05-18T06:15:15.671Z,99250.67
2019-05-18T06:17:42.731Z,99256.34
2019-05-18T06:20:09.889Z,99247.84
2019-05-18T06:22:40.992Z,99241.55
2019-05-18T06:25:14.897Z,99246.37
2019-05-18T06:27:43.105Z,99246.42
2019-05-18T06:30:12.243Z,99249.99
2019-05-18T06:32:39.395Z,99246.69
2019-05-18T06:35:07.881Z,99243.48
2019-05-18T06:37:37.494Z,99244.64
2019-05-18T06:40:04.992Z,99241.20
2019-05-18T06:42:33.155Z,99241.22
2019-05-18T06:45:00.169Z,99244.96
2019-05-18T06:47:28.451Z,99247.67
2019-05-18T06:49:55.979Z,99249.52
2019-05-18T06:52:37.945Z,99248.77
2019-05-18T06:55:06.505Z,99250.48
2019-05-18T06:57:38.066Z,99250.12
2019-05-18T07:00:11.026Z,99253.48
2019-05-18T07:02:39.358Z,99257.91
2019-05-18T07:05:06.487Z,99254.17
2019-05-18T07:07:35.020Z,99251.69
2019-05-18T07:10:03.211Z,99250.78
2019-05-18T07:12:30.760Z,99251.30
2019-05-18T07:15:00.357Z,99248.92
2019-05-18T07:17:26.916Z,99249.53
2019-05-18T07:19:53.976Z,99250.13
2019-05-18T07:22:21.079Z,99246.73
2019-05-18T07:24:48.101Z,99253.28
2019-05-18T07:27:15.156Z,99247.33
2019-05-18T07:29:42.256Z,99249.56
2019-05-18T07:32:09.312Z,99253.45
2019-05-18T07:34:36.693Z,99247.11
2019-05-18T07:37:04.066Z,99253.42
2019-05-18T07:39:36.060Z,99245.42
2019-05-18T07:42:02.988Z,99247.11
2019-05-18T07:45:00.383Z,99242.88
2019-05-18T07:47:30.547Z,99244.14
2019-05-18T07:50:02.055Z,99241.69
2019-05-18T07:52:29.333Z,99236.80
2019-05-18T07:55:01.794Z,99245.25
2019-05-18T07:57:39.020Z,99245.22
2019-05-18T08:00:19.084Z,99248.11
2019-05-18T08:03:08.299Z,99239.33
2019-05-18T08:05:51.546Z,99237.07
2019-05-18T08:08:23.013Z,99244.89
2019-05-18T08:11:12.323Z,99237.52
2019-05-18T08:13:43.511Z,99241.10
2019-05-18T08:16:21.583Z,99244.97
2019-05-18T08:18:58.174Z,99238.56
2019-05-18T08:21:32.550Z,99241.05
2019-05-18T08:24:06.559Z,99237.11
2019-05-18T08:26:42.040Z,99234.07
2019-05-18T08:29:24.376Z,99231.52
2019-05-18T08:31:52.310Z,99234.67
2019-05-18T08:34:30.509Z,99237.80
2019-05-18T08:37:13.008Z,99233.75
2019-05-18T08:39:39.996Z,99228.12
2019-05-18T08:42:07.018Z,99227.05
2019-05-18T08:44:34.157Z,99223.31
2019-05-18T08:47:01.659Z,99226.30
2019-05-18T08:49:28.644Z,99225.33
2019-05-18T08:52:07.943Z,99218.05
2019-05-18T08:54:29.567Z,99211.81
2019-05-18T08:56:57.272Z,99216.74
2019-05-18T08:59:33.537Z,99215.02
2019-05-18T09:02:00.676Z,99212.77
2019-05-18T09:04:28.127Z,99209.61
2019-05-18T09:07:12.396Z,99217.47
2019-05-18T09:09:42.725Z,99218.72
2019-05-18T09:12:09.970Z,99220.80
2019-05-18T09:14:37.608Z,99216.23
2019-05-18T09:17:06.524Z,99222.49
2019-05-18T09:19:34.800Z,99223.75
2019-05-18T09:22:03.700Z,99219.27
2019-05-18T09:24:30.836Z,99217.83
2019-05-18T09:26:59.158Z,99218.17
2019-05-18T09:29:26.405Z,99214.17
2019-05-18T09:31:54.786Z,99217.38
2019-05-18T09:34:22.360Z,99213.42
2019-05-18T09:36:49.476Z,99212.48
2019-05-18T09:39:18.812Z,99211.25
2019-05-18T09:41:50.250Z,99207.77
2019-05-18T09:44:18.894Z,99209.66
2019-05-18T09:46:52.522Z,99205.34
2019-05-18T09:49:27.806Z,99196.59
2019-05-18T09:52:04.368Z,99199.39
2019-05-18T09:54:36.518Z,99203.96
2019-05-18T09:57:04.021Z,99199.20
2019-05-18T09:59:31.736Z,99204.80
2019-05-18T10:02:13.136Z,99199.56
2019-05-18T10:05:19.067Z,99198.95
2019-05-18T10:08:00.251Z,99200.19
2019-05-18T10:10:49.807Z,99199.80
2019-05-18T10:13:19.181Z,99196.08
2019-05-18T10:15:46.419Z,99187.84
2019-05-18T10:18:17.503Z,99186.42
2019-05-18T10:20:46.454Z,99180.16
2019-05-18T10:23:14.078Z,99184.42
2019-05-18T10:25:41.974Z,99186.34
2019-05-18T10:28:14.864Z,99182.53
2019-05-18T10:30:49.247Z,99179.05
2019-05-18T10:33:17.731Z,99179.08
2019-05-18T10:35:53.067Z,99175.02
2019-05-18T10:38:24.676Z,99168.84
2019-05-18T10:40:54.570Z,99170.96
2019-05-18T10:43:21.918Z,99164.34
2019-05-18T10:46:24.477Z,99170.25
2019-05-18T10:49:00.568Z,99159.98
2019-05-18T10:51:42.802Z,99158.98
2019-05-18T10:54:25.170Z,99153.00
2019-05-18T10:56:59.030Z,99149.23
2019-05-18T11:00:08.450Z,99145.70
2019-05-18T11:05:54.772Z,99149.23
2019-05-18T11:08:50.648Z,99155.91
2019-05-18T11:11:21.645Z,99148.64
2019-05-18T11:13:51.152Z,99152.67
2019-05-18T11:16:19.528Z,99144.74
2019-05-18T11:19:03.912Z,99139.69
2019-05-18T11:21:50.460Z,99147.38
2019-05-18T11:25:04.905Z,99130.11
2019-05-18T11:27:38.344Z,99142.97
2019-05-18T11:30:14.623Z,99131.05
2019-05-18T11:33:04.566Z,99128.61
2019-05-18T11:35:37.055Z,99125.48
2019-05-18T11:38:04.687Z,99119.52
2019-05-18T11:40:33.685Z,99121.91
2019-05-18T11:43:01.667Z,99110.06
2019-05-18T11:45:35.715Z,99116.94
2019-05-18T11:48:03.570Z,99119.45
2019-05-18T11:50:30.855Z,99118.22
2019-05-18T11:52:58.146Z,99128.42
2019-05-18T11:55:25.335Z,99124.27
2019-05-18T11:57:55.087Z,99118.74
2019-05-18T12:00:36.312Z,99109.06
2019-05-18T12:03:08.689Z,99103.27
2019-05-18T12:05:36.118Z,99106.12
2019-05-18T12:08:09.874Z,99105.86
2019-05-18T12:10:37.055Z,99100.89
2019-05-18T12:13:12.472Z,99098.66
2019-05-18T12:15:43.434Z,99093.16
2019-05-18T12:18:12.968Z,99091.12
2019-05-18T12:20:42.541Z,99092.32
2019-05-18T12:23:15.251Z,99085.97
2019-05-18T12:25:42.499Z,99080.51
2019-05-18T12:28:13.090Z,99085.20
2019-05-18T12:30:51.314Z,99079.92
2019-05-18T12:33:18.833Z,99080.72
2019-05-18T12:35:47.698Z,99085.97
2019-05-18T12:38:15.118Z,99086.66
2019-05-18T12:40:42.460Z,99088.26
2019-05-18T12:43:09.646Z,99091.35
2019-05-18T12:45:38.035Z,99084.55
2019-05-18T12:48:06.184Z,99081.91
2019-05-18T12:50:37.858Z,99076.57
2019-05-18T12:53:06.365Z,99075.39
2019-05-18T12:55:34.649Z,99063.43
2019-05-18T12:58:08.266Z,99070.20
2019-05-18T13:00:38.929Z,99071.48
2019-05-18T13:03:11.420Z,99064.58
2019-05-18T13:05:39.585Z,99074.37
2019-05-18T13:08:07.371Z,99066.66
2019-05-18T13:10:35.972Z,99069.34
2019-05-18T13:13:04.129Z,99070.56
2019-05-18T13:15:31.546Z,99070.27
2019-05-18T13:17:59.072Z,99066.61
2019-05-18T13:20:49.204Z,99062.77
2019-05-18T13:23:26.666Z,99053.78
2019-05-18T13:26:12.696Z,99059.03
2019-05-18T13:28:55.186Z,99063.80
2019-05-18T13:31:36.142Z,99061.66
2019-05-18T13:34:08.010Z,99061.18
2019-05-18T13:36:38.176Z,99060.16
2019-05-18T13:39:28.526Z,99063.14
2019-05-18T13:41:57.861Z,99066.16
2019-05-18T13:47:29.418Z,99077.18
2019-05-18T13:50:05.547Z,99081.30
2019-05-18T13:52:32.900Z,99083.64
2019-05-18T13:55:05.670Z,99084.17
2019-05-18T13:58:02.135Z,99083.59
2019-05-18T14:03:39.691Z,99083.33
2019-05-18T14:06:13.995Z,99084.25
2019-05-18T14:08:41.381Z,99068.55
2019-05-18T14:11:08.377Z,99072.16
2019-05-18T14:13:45.551Z,99075.97
2019-05-18T14:16:19.614Z,99070.32
2019-05-18T14:18:50.404Z,99066.54
2019-05-18T14:21:17.377Z,99071.19
2019-05-18T14:23:44.364Z,99062.16
2019-05-18T14:26:11.366Z,99058.06
2019-05-18T14:28:39.243Z,99057.02
2019-05-18T14:31:06.261Z,99049.34
2019-05-18T14:33:33.257Z,99051.55
2019-05-18T14:36:14.812Z,99054.20
2019-05-18T14:38:43.243Z,99054.23
2019-05-18T14:41:10.211Z,99051.20
2019-05-18T14:43:37.194Z,99056.63
2019-05-18T14:46:04.216Z,99050.16
2019-05-18T14:48:31.290Z,99046.19
2019-05-18T14:50:58.709Z,99041.41
2019-05-18T14:53:27.595Z,99044.09
2019-05-18T14:55:54.570Z,99048.41
2019-05-18T14:58:21.532Z,99046.66
2019-05-18T15:00:48.558Z,99049.09
2019-05-18T15:03:16.838Z,99046.58
2019-05-18T15:05:44.207Z,99038.70
2019-05-18T15:08:11.248Z,99039.83
2019-05-18T15:10:41.006Z,99033.77
2019-05-18T15:13:08.015Z,99040.53
2019-05-18T15:15:35.024Z,99035.20
2019-05-18T15:18:02.211Z,99036.40
2019-05-18T15:20:29.292Z,99037.41
2019-05-18T15:22:56.294Z,99033.16
2019-05-18T15:25:23.296Z,99032.66
2019-05-18T15:27:52.225Z,99032.87
2019-05-18T15:30:19.524Z,99031.92
2019-05-18T15:32:48.412Z,99030.78
2019-05-18T15:35:15.817Z,99031.88
2019-05-18T15:37:44.095Z,99032.06
2019-05-18T15:40:24.148Z,99031.39
2019-05-18T15:42:51.837Z,99025.50
2019-05-18T15:45:18.860Z,99035.34
2019-05-18T15:47:45.829Z,99032.09
2019-05-18T15:50:14.737Z,99032.42
2019-05-18T15:52:41.999Z,99038.23
2019-05-18T15:55:09.287Z,99037.91
2019-05-18T15:57:36.325Z,99040.02
2019-05-18T16:00:06.682Z,99036.88
2019-05-18T16:02:33.959Z,99034.13
2019-05-18T16:05:08.620Z,99031.30
2019-05-18T16:07:35.685Z,99026.79
2019-05-18T16:10:02.761Z,99030.91
2019-05-18T16:12:29.775Z,99032.38
2019-05-18T16:15:00.446Z,99027.45
2019-05-18T16:17:39.008Z,99026.27
2019-05-18T16:20:00.360Z,99024.86
2019-05-18T16:22:27.371Z,99023.28
2019-05-18T16:24:54.388Z,99024.86
2019-05-18T16:27:23.365Z,99030.19
2019-05-18T16:29:51.447Z,99028.48
2019-05-18T16:32:18.407Z,99030.11
2019-05-18T16:34:45.486Z,99027.17
2019-05-18T16:37:12.804Z,99026.67
2019-05-18T16:39:40.542Z,99027.83
2019-05-18T16:42:16.371Z,99028.76
2019-05-18T16:44:43.457Z,99030.46
2019-05-18T16:47:10.551Z,99022.72
2019-05-18T16:49:37.534Z,99028.02
2019-05-18T16:52:04.858Z,99022.64
2019-05-18T16:54:31.930Z,99028.41
2019-05-18T16:56:59.021Z,99035.00
2019-05-18T16:59:25.958Z,99038.52
2019-05-18T17:01:52.949Z,99035.49
2019-05-18T17:04:19.919Z,99031.61
2019-05-18T17:06:47.391Z,99030.47
2019-05-18T17:09:14.444Z,99047.27
2019-05-18T17:11:41.494Z,99059.95
2019-05-18T17:14:08.482Z,99078.24
2019-05-18T17:16:35.691Z,99065.45
2019-05-18T17:19:04.884Z,99057.20
2019-05-18T17:21:31.870Z,99050.66
2019-05-18T17:23:58.827Z,99061.01
2019-05-18T17:26:25.817Z,99069.84
2019-05-18T17:28:52.921Z,99071.13
2019-05-18T17:31:23.213Z,99065.45
2019-05-18T17:33:50.293Z,99053.49
2019-05-18T17:36:19.641Z,99055.47
2019-05-18T17:38:46.501Z,99057.11
2019-05-18T17:41:20.439Z,99058.88
2019-05-18T17:44:20.849Z,99055.15
2019-05-18T17:46:48.823Z,99051.52
2019-05-18T17:49:26.523Z,99061.70
2019-05-18T17:51:44.782Z,99057.28
2019-05-18T17:54:11.798Z,99063.34
2019-05-18T17:56:38.896Z,99062.02
2019-05-18T17:59:07.673Z,99066.58
2019-05-18T18:01:35.011Z,99068.34
2019-05-18T18:04:03.332Z,99069.70
2019-05-18T18:06:33.616Z,99071.97
2019-05-18T18:09:22.008Z,99070.38
2019-05-18T18:11:49.141Z,99074.52
2019-05-18T18:14:16.269Z,99084.39
2019-05-18T18:16:43.265Z,99098.34
2019-05-18T18:19:10.363Z,99111.63
2019-05-18T18:21:39.664Z,99120.05
2019-05-18T18:24:06.627Z,99143.48
2019-05-18T18:26:33.652Z,99154.14
2019-05-18T18:29:03.778Z,99155.30
2019-05-18T18:31:29.672Z,99161.20
2019-05-18T18:33:58.585Z,99179.50
2019-05-18T18:36:25.581Z,99182.19
2019-05-18T18:38:52.570Z,99175.41
2019-05-18T18:41:21.480Z,99171.39
2019-05-18T18:43:48.507Z,99180.84
2019-05-18T18:46:15.537Z,99180.13
2019-05-18T18:48:42.539Z,99183.20
2019-05-18T18:51:09.534Z,99181.41
2019-05-18T18:53:38.503Z,99184.51
2019-05-18T18:56:05.913Z,99185.81
2019-05-18T18:58:32.880Z,99193.14
2019-05-18T19:01:00.068Z,99199.73
2019-05-18T19:03:29.147Z,99200.36
2019-05-18T19:05:56.187Z,99210.45
2019-05-18T19:08:23.329Z,99212.27
2019-05-18T19:10:51.762Z,99225.42
2019-05-18T19:13:19.977Z,99230.04
2019-05-18T19:15:46.969Z,99234.13
2019-05-18T19:18:13.944Z,99237.47
2019-05-18T19:20:40.950Z,99239.66
2019-05-18T19:23:07.970Z,99243.08
2019-05-18T19:25:36.169Z,99245.69
2019-05-18T19:28:03.196Z,99250.66
2019-05-18T19:30:33.407Z,99254.32
2019-05-18T19:33:00.608Z,99260.69
2019-05-18T19:35:27.615Z,99272.98
2019-05-18T19:37:55.104Z,99277.98
2019-05-18T19:40:22.101Z,99284.17
2019-05-18T19:42:49.103Z,99282.12
2019-05-18T19:45:16.395Z,99279.13
2019-05-18T19:47:43.932Z,99280.06
2019-05-18T19:50:12.047Z,99276.20
2019-05-18T19:52:42.755Z,99278.94
2019-05-18T19:55:09.861Z,99277.53
2019-05-18T19:57:40.100Z,99275.66
2019-05-18T20:00:07.460Z,99257.72
2019-05-18T20:02:38.744Z,99232.66
2019-05-18T20:05:08.487Z,99234.91
2019-05-18T20:07:38.627Z,99255.51
2019-05-18T20:10:06.032Z,99270.50
2019-05-18T20:12:33.058Z,99274.03
2019-05-18T20:15:03.711Z,99285.13
2019-05-18T20:17:36.904Z,99271.31
2019-05-18T20:20:09.120Z,99268.35
2019-05-18T20:22:37.620Z,99273.95
2019-05-18T20:25:06.858Z,99271.88
2019-05-18T20:27:35.995Z,99256.06
2019-05-18T20:30:14.214Z,99248.47
2019-05-18T20:32:49.318Z,99232.33
2019-05-18T20:35:16.839Z,99208.77
2019-05-18T20:37:55.378Z,99193.80
2019-05-18T20:40:24.894Z,99190.67
2019-05-18T20:42:52.087Z,99187.05
2019-05-18T20:45:19.644Z,99184.91
2019-05-18T20:47:46.686Z,99192.30
2019-05-18T20:50:16.776Z,99190.39
2019-05-18T20:52:43.790Z,99197.30
2019-05-18T20:55:10.787Z,99201.50
2019-05-18T20:57:37.745Z,99203.10
2019-05-18T21:00:05.207Z,99210.84
2019-05-18T21:02:34.494Z,99212.83
2019-05-18T21:05:03.344Z,99214.31
2019-05-18T21:07:32.567Z,99218.77
2019-05-18T21:10:03.006Z,99213.92
2019-05-18T21:12:30.417Z,99212.34
2019-05-18T21:14:57.446Z,99209.96
2019-05-18T21:17:24.603Z,99211.84
2019-05-18T21:19:53.939Z,99206.88
2019-05-18T21:22:20.897Z,99210.88
2019-05-18T21:24:47.931Z,99215.05
2019-05-18T21:27:15.603Z,99222.83
2019-05-18T21:29:42.624Z,99224.60
2019-05-18T21:32:12.375Z,99223.05
2019-05-18T21:34:42.682Z,99224.31
2019-05-18T21:37:09.683Z,99232.30
2019-05-18T21:39:36.965Z,99236.31
2019-05-18T21:42:03.938Z,99255.45
2019-05-18T21:44:30.941Z,99262.52
2019-05-18T21:46:57.976Z,99272.02
2019-05-18T21:49:25.134Z,99280.09
2019-05-18T21:51:52.236Z,99290.31
2019-05-18T21:54:23.609Z,99285.80
2019-05-18T21:56:50.882Z,99283.14
2019-05-18T21:59:32.084Z,99276.67
2019-05-18T22:02:04.641Z,99281.25
2019-05-18T22:04:33.011Z,99277.39
2019-05-18T22:07:02.206Z,99283.28
2019-05-18T22:09:29.436Z,99285.36
2019-05-18T22:12:00.108Z,99282.22
2019-05-18T22:14:28.561Z,99274.06
2019-05-18T22:16:55.605Z,99278.70
2019-05-18T22:19:22.578Z,99282.43
2019-05-18T22:21:49.574Z,99287.32
2019-05-18T22:24:25.733Z,99286.97
2019-05-18T22:26:53.019Z,99287.50
2019-05-18T22:29:19.985Z,99284.78
2019-05-18T22:31:46.911Z,99289.66
2019-05-18T22:34:15.951Z,99286.09
2019-05-18T22:36:42.923Z,99282.05
2019-05-18T22:39:09.864Z,99275.51
2019-05-18T22:41:37.236Z,99282.47
2019-05-18T22:44:04.197Z,99285.19
2019-05-18T22:46:31.222Z,99275.53
2019-05-18T22:48:58.225Z,99275.58
2019-05-18T22:51:26.417Z,99267.39
2019-05-18T22:53:53.405Z,99263.29
2019-05-18T22:56:20.429Z,99264.41
2019-05-18T22:58:47.475Z,99263.22
2019-05-18T23:01:14.611Z,99255.11
2019-05-18T23:03:41.635Z,99252.95
2019-05-18T23:06:10.523Z,99250.56
2019-05-18T23:08:37.484Z,99240.23
2019-05-18T23:11:04.457Z,99241.40
2019-05-18T23:13:31.400Z,99239.95
2019-05-18T23:15:58.378Z,99235.25
2019-05-18T23:18:25.380Z,99225.98
2019-05-18T23:20:52.390Z,99223.48
2019-05-18T23:23:19.349Z,99223.34
2019-05-18T23:25:46.346Z,99215.95
2019-05-18T23:28:13.392Z,99207.80
2019-05-18T23:30:41.525Z,99205.50
2019-05-18T23:33:08.560Z,99201.63
2019-05-18T23:35:35.507Z,99201.16
2019-05-18T23:38:02.795Z,99188.17
2019-05-18T23:40:29.900Z,99175.02
2019-05-18T23:42:56.881Z,99171.66
2019-05-18T23:45:23.835Z,99168.90
2019-05-18T23:47:50.833Z,99159.85
2019-05-18T23:50:18.052Z,99152.09
2019-05-18T23:52:45.414Z,99149.14
2019-05-18T23:55:12.610Z,99152.17
2019-05-18T23:57:39.602Z,99155.94
